Time;durP1;ratioP1;P1;durP2;ratioP2;P2;SDS_P1;SDS_P2;PMS_P1;PMS_P2;Temp;Humidity;BMP_temperature;BMP_pressure;BME280_temperature;BME280_humidity;BME280_pressure;Samples;Min_cycle;Max_cycle;Signal;HPM_P1;HPM_P2
2021/10/19 00:00:46;;;;;;;31.60;22.10;;;;;;;6.15;81.65;98427.06;116475;1182;60389;-84
2021/10/19 00:03:16;;;;;;;40.00;27.60;;;;;;;6.16;81.70;98428.09;116431;1183;60350;-72
2021/10/19 00:05:46;;;;;;;40.90;28.00;;;;;;;6.15;81.18;98426.91;116455;1182;71491;-75
2021/10/19 00:08:17;;;;;;;39.60;27.50;;;;;;;6.11;82.69;98422.95;116653;1181;67228;-72
2021/10/19 00:10:47;;;;;;;44.10;28.20;;;;;;;6.08;82.10;98422.30;116494;1181;69261;-77
2021/10/19 00:13:17;;;;;;;42.40;29.80;;;;;;;6.06;83.20;98426.94;116613;1182;60356;-74
2021/10/19 00:15:46;;;;;;;42.00;25.60;;;;;;;6.06;83.42;98421.74;116437;1182;60362;-83
2021/10/19 00:18:16;;;;;;;46.80;31.60;;;;;;;6.07;84.08;98424.89;116411;1182;73393;-70
2021/10/19 00:20:46;;;;;;;40.80;26.30;;;;;;;6.08;82.50;98424.81;116612;1182;68511;-83
2021/10/19 00:23:15;;;;;;;30.10;19.70;;;;;;;6.06;83.54;98422.85;116344;1182;68975;-71
2021/10/19 00:25:45;;;;;;;31.10;21.80;;;;;;;6.06;82.95;98420.17;116488;1182;60379;-74
2021/10/19 00:28:14;;;;;;;31.00;21.60;;;;;;;6.06;82.57;98420.58;116440;1182;60393;-68
2021/10/19 00:30:45;;;;;;;;;;;;;;;6.06;81.99;98422.92;116431;1183;71364;-69
2021/10/19 00:33:15;;;;;;;34.60;21.60;;;;;;;6.03;81.92;98422.38;116501;1182;66662;-70
2021/10/19 00:35:44;;;;;;;30.50;20.60;;;;;;;6.01;81.34;98419.69;116464;1182;69222;-71
2021/10/19 00:38:14;;;;;;;34.30;20.20;;;;;;;5.99;82.35;98423.45;116561;1182;60369;-69
2021/10/19 00:40:44;;;;;;;32.00;21.10;;;;;;;6.00;83.68;98424.64;116252;1184;60329;-71
2021/10/19 00:43:14;;;;;;;33.40;20.70;;;;;;;6.01;83.44;98426.68;116487;1182;70598;-70
2021/10/19 00:45:47;;;;;;;29.50;20.30;;;;;;;6.02;83.54;98430.93;116478;1181;67642;-74
2021/10/19 00:48:21;;;;;;;27.80;20.20;;;;;;;6.04;84.45;98431.48;116512;1182;68443;-72
2021/10/19 00:50:51;;;;;;;33.20;23.10;;;;;;;6.05;84.74;98434.08;116571;1182;60351;-70
2021/10/19 00:53:22;;;;;;;;;;;;;;;6.06;84.05;98432.36;116473;1182;60394;-80
2021/10/19 00:55:52;;;;;;;;;;;;;;;6.05;83.78;98428.89;116616;1182;71377;-70
2021/10/19 00:58:21;;;;;;;33.00;23.40;;;;;;;6.04;83.32;98430.70;116478;1182;68110;-73
2021/10/19 01:00:51;;;;;;;31.90;22.20;;;;;;;6.03;82.98;98434.00;116483;1182;69236;-70
2021/10/19 01:03:21;;;;;;;33.30;24.40;;;;;;;6.04;83.03;98431.56;116507;1182;60330;-77
2021/10/19 01:05:52;;;;;;;31.50;22.60;;;;;;;6.04;83.18;98429.60;116553;1182;61184;-72
2021/10/19 01:08:22;;;;;;;35.20;23.80;;;;;;;6.05;84.52;98428.98;116522;1182;72175;-70
2021/10/19 01:10:52;;;;;;;32.40;24.30;;;;;;;6.04;84.80;98428.73;116483;1181;67638;-69
2021/10/19 01:13:22;;;;;;;38.00;26.20;;;;;;;6.03;84.48;98426.23;116489;1181;69223;-78
2021/10/19 01:16:03;;;;;;;30.70;20.90;;;;;;;6.03;84.26;98423.63;116505;1182;60823;-69
2021/10/19 01:18:34;;;;;;;26.90;20.50;;;;;;;6.03;83.80;98422.21;116489;1182;60342;-78
2021/10/19 01:21:06;;;;;;;31.30;22.40;;;;;;;6.02;84.44;98421.82;116437;1182;70407;-71
2021/10/19 01:23:37;;;;;;;29.10;20.40;;;;;;;6.03;84.07;98420.02;116505;1182;67625;-83
2021/10/19 01:26:07;;;;;;;;;;;;;;;6.02;84.59;98423.15;116438;1182;69234;-70
2021/10/19 01:28:42;;;;;;;32.20;20.60;;;;;;;6.01;84.53;98423.46;116472;1182;60754;-69
2021/10/19 01:31:13;;;;;;;30.60;20.50;;;;;;;6.01;84.40;98424.33;116493;1181;60415;-72
2021/10/19 01:33:44;;;;;;;31.80;22.00;;;;;;;6.00;84.43;98426.45;116570;1182;72215;-71
2021/10/19 01:36:14;;;;;;;33.20;21.80;;;;;;;6.01;84.21;98426.84;116528;1182;67789;-86
2021/10/19 01:38:43;;;;;;;32.20;22.40;;;;;;;6.01;84.70;98434.94;116422;1182;69165;-76
2021/10/19 01:41:13;;;;;;;34.70;24.60;;;;;;;6.01;84.70;98430.77;116423;1181;60308;-78
2021/10/19 01:43:43;;;;;;;34.50;23.80;;;;;;;6.00;83.65;98434.54;116437;1176;60330;-70
2021/10/19 01:46:13;;;;;;;31.70;21.80;;;;;;;6.00;84.51;98439.64;116422;1179;72125;-79
2021/10/19 01:48:43;;;;;;;31.00;22.20;;;;;;;6.00;85.25;98439.95;116481;1182;67721;-70
2021/10/19 01:51:13;;;;;;;35.80;23.50;;;;;;;5.99;85.44;98441.61;116460;1183;69212;-78
2021/10/19 01:53:44;;;;;;;34.30;22.60;;;;;;;5.99;84.68;98438.92;116422;1182;60355;-72
2021/10/19 01:56:15;;;;;;;37.60;22.80;;;;;;;5.98;83.67;98443.33;116493;1182;60262;-73
2021/10/19 01:58:44;;;;;;;35.50;24.60;;;;;;;5.95;83.67;98445.52;116488;1181;72225;-85
2021/10/19 02:01:16;;;;;;;34.70;24.60;;;;;;;5.93;83.77;98445.20;116475;1182;67662;-74
2021/10/19 02:03:45;;;;;;;35.30;25.00;;;;;;;5.91;83.33;98444.54;116473;1182;68317;-83
2021/10/19 02:06:15;;;;;;;37.00;26.30;;;;;;;5.90;83.28;98444.04;116546;1179;60339;-70
2021/10/19 02:08:45;;;;;;;34.00;24.70;;;;;;;5.87;83.23;98444.48;116669;1180;60368;-81
2021/10/19 02:11:16;;;;;;;30.10;21.50;;;;;;;5.85;83.57;98449.50;116485;1182;72230;-71
2021/10/19 02:13:46;;;;;;;38.60;23.80;;;;;;;5.83;83.59;98444.40;116530;1182;67633;-80
2021/10/19 02:16:16;;;;;;;29.80;21.30;;;;;;;5.81;83.76;98449.25;116594;1181;68577;-72
2021/10/19 02:18:46;;;;;;;33.40;23.30;;;;;;;5.81;85.32;98450.75;116549;1181;60425;-72
2021/10/19 02:21:17;;;;;;;33.30;22.80;;;;;;;5.80;85.86;98446.19;116493;1180;60279;-72
2021/10/19 02:23:47;;;;;;;31.80;20.40;;;;;;;5.80;85.41;98449.41;116426;1182;72307;-69
2021/10/19 02:26:18;;;;;;;33.70;23.30;;;;;;;5.79;85.74;98450.73;116559;1182;67530;-70
2021/10/19 02:28:49;;;;;;;32.40;21.30;;;;;;;5.78;85.14;98451.05;116511;1182;67494;-78
2021/10/19 02:31:19;;;;;;;;;;;;;;;5.76;85.12;98455.04;116555;1181;60366;-74
2021/10/19 02:33:51;;;;;;;28.30;18.60;;;;;;;5.72;84.81;98454.21;116429;1181;60271;-70
2021/10/19 02:36:21;;;;;;;29.60;20.60;;;;;;;5.69;84.51;98457.02;116522;1182;72060;-72
2021/10/19 02:38:52;;;;;;;31.60;21.20;;;;;;;5.64;84.73;98460.84;116565;1182;68375;-70
2021/10/19 02:41:22;;;;;;;29.30;20.10;;;;;;;5.56;84.02;98469.58;116561;1181;69134;-71
2021/10/19 02:43:55;;;;;;;31.10;21.60;;;;;;;5.51;85.21;98467.02;116554;1181;60353;-79
2021/10/19 02:46:25;;;;;;;29.60;20.50;;;;;;;5.45;85.12;98472.64;116528;1182;60371;-69
2021/10/19 02:48:56;;;;;;;;;;;;;;;5.40;84.79;98473.00;116546;1181;71179;-84
2021/10/19 02:51:26;;;;;;;34.40;23.80;;;;;;;5.35;84.79;98476.64;116476;1181;67505;-79
2021/10/19 02:53:57;;;;;;;38.10;24.10;;;;;;;5.31;85.36;98477.32;116321;1182;69308;-80
2021/10/19 02:56:29;;;;;;;37.00;24.60;;;;;;;5.27;84.88;98478.94;116296;1181;60348;-69
2021/10/19 02:59:00;;;;;;;41.20;25.30;;;;;;;5.22;84.91;98479.38;116548;1181;60314;-72
2021/10/19 03:01:29;;;;;;;37.60;26.20;;;;;;;5.16;84.38;98483.46;116482;1181;72388;-77
2021/10/19 03:04:00;;;;;;;33.10;24.00;;;;;;;5.12;85.15;98484.91;116507;1182;67505;-79
2021/10/19 03:06:29;;;;;;;;;;;;;;;5.05;86.16;98487.69;116443;1182;68305;-85
2021/10/19 03:08:58;;;;;;;33.20;21.70;;;;;;;4.99;86.78;98491.54;116509;1182;60368;-73
2021/10/19 03:11:28;;;;;;;31.50;20.80;;;;;;;4.92;86.13;98491.79;116409;1182;60360;-70
2021/10/19 03:13:58;;;;;;;32.90;23.70;;;;;;;4.85;86.55;98493.84;116425;1182;72076;-73
2021/10/19 03:16:27;;;;;;;32.60;23.20;;;;;;;4.77;85.90;98492.81;116475;1182;67622;-81
2021/10/19 03:18:57;;;;;;;40.10;24.50;;;;;;;4.68;85.29;98496.09;116451;1182;69249;-81
2021/10/19 03:21:26;;;;;;;36.50;26.00;;;;;;;4.59;85.06;98494.73;116522;1182;60348;-75
2021/10/19 03:23:56;;;;;;;36.30;24.00;;;;;;;4.50;84.91;98495.34;116482;1182;60374;-70
2021/10/19 03:26:26;;;;;;;34.40;24.00;;;;;;;4.41;86.19;98493.05;116446;1182;71411;-72
2021/10/19 03:28:55;;;;;;;34.50;23.40;;;;;;;4.34;85.76;98495.86;116468;1182;68246;-84
2021/10/19 03:31:25;;;;;;;40.90;25.20;;;;;;;4.26;85.50;98496.84;116465;1182;68501;-84
2021/10/19 03:33:55;;;;;;;37.40;24.80;;;;;;;4.18;85.41;98503.88;116403;1182;60383;-75
2021/10/19 03:36:25;;;;;;;41.80;26.70;;;;;;;4.10;85.06;98508.63;116418;1182;60337;-70
2021/10/19 03:38:54;;;;;;;36.90;25.40;;;;;;;4.05;84.95;98508.15;116371;1181;72206;-71
2021/10/19 03:41:25;;;;;;;42.10;27.70;;;;;;;4.00;84.77;98508.25;116419;1182;68227;-73
2021/10/19 03:43:54;;;;;;;35.30;24.80;;;;;;;3.94;85.04;98508.09;116430;1183;68455;-75
2021/10/19 03:46:25;;;;;;;44.40;25.90;;;;;;;3.88;85.40;98512.08;116263;1182;60423;-71
2021/10/19 03:48:55;;;;;;;38.20;24.70;;;;;;;3.81;85.14;98515.52;116231;1182;60361;-80
2021/10/19 03:51:25;;;;;;;40.60;26.50;;;;;;;3.74;85.64;98521.88;116243;1183;72235;-79
2021/10/19 03:53:54;;;;;;;36.90;24.50;;;;;;;3.64;85.53;98517.68;116385;1182;68494;-74
2021/10/19 03:56:24;;;;;;;37.00;24.60;;;;;;;3.57;85.63;98523.27;116421;1182;69081;-76
2021/10/19 03:58:55;;;;;;;34.20;25.20;;;;;;;3.51;85.80;98520.59;116383;1182;60354;-69
2021/10/19 04:01:24;;;;;;;39.60;26.80;;;;;;;3.43;85.95;98523.36;116459;1181;59917;-78
2021/10/19 04:03:54;;;;;;;39.60;24.90;;;;;;;3.36;86.00;98523.01;116454;1176;71633;-72
2021/10/19 04:06:23;;;;;;;45.20;24.40;;;;;;;3.31;85.89;98528.48;116315;1182;68566;-80
2021/10/19 04:08:52;;;;;;;35.80;24.60;;;;;;;3.24;86.44;98531.05;116496;1182;69282;-78
2021/10/19 04:11:21;;;;;;;41.90;25.90;;;;;;;3.21;86.03;98534.80;116386;1182;60353;-74
2021/10/19 04:13:51;;;;;;;44.10;27.40;;;;;;;3.18;86.52;98539.36;116417;1182;60351;-71
2021/10/19 04:16:20;;;;;;;39.50;24.80;;;;;;;3.14;86.61;98541.48;116475;1182;72223;-81
2021/10/19 04:18:49;;;;;;;40.50;25.50;;;;;;;3.08;86.39;98546.09;116461;1181;68410;-81
2021/10/19 04:21:18;;;;;;;40.40;25.70;;;;;;;3.01;85.76;98547.11;116349;1182;69382;-75
2021/10/19 04:23:47;;;;;;;42.60;25.20;;;;;;;2.94;85.88;98554.03;116474;1182;60356;-83
2021/10/19 04:26:17;;;;;;;36.10;24.10;;;;;;;2.88;86.03;98557.20;116482;1179;60353;-70
2021/10/19 04:28:46;;;;;;;44.10;27.40;;;;;;;2.83;86.60;98557.95;116612;1182;72212;-85
2021/10/19 04:31:16;;;;;;;36.10;22.90;;;;;;;2.80;86.81;98561.34;116249;1182;67529;-80
2021/10/19 04:33:45;;;;;;;34.40;24.60;;;;;;;2.75;86.73;98561.96;116451;1176;69127;-77
2021/10/19 04:36:14;;;;;;;39.60;26.10;;;;;;;2.71;86.60;98564.08;116488;1182;60364;-78
2021/10/19 04:38:43;;;;;;;40.10;26.30;;;;;;;2.67;86.46;98564.36;116460;1182;60289;-85
2021/10/19 04:41:12;;;;;;;42.70;26.70;;;;;;;2.64;86.21;98564.39;116322;1182;71995;-85
2021/10/19 04:43:42;;;;;;;48.40;30.20;;;;;;;2.63;86.36;98567.19;116475;1182;68555;-83
2021/10/19 04:46:12;;;;;;;48.20;29.70;;;;;;;2.62;86.64;98564.10;116490;1181;68619;-74
2021/10/19 04:48:41;;;;;;;46.90;31.10;;;;;;;2.62;86.73;98563.56;116498;1182;60367;-70
2021/10/19 04:51:10;;;;;;;49.00;28.70;;;;;;;2.63;86.94;98565.21;116517;1182;60356;-79
2021/10/19 04:53:40;;;;;;;48.10;30.40;;;;;;;2.63;86.84;98568.66;116437;1181;71302;-71
2021/10/19 04:56:10;;;;;;;48.50;31.10;;;;;;;2.62;86.76;98566.61;116463;1181;67655;-81
2021/10/19 04:58:39;;;;;;;44.60;28.00;;;;;;;2.60;86.60;98569.48;116535;1181;68529;-79
2021/10/19 05:01:08;;;;;;;47.00;30.90;;;;;;;2.60;87.65;98575.10;116422;1182;60325;-77
2021/10/19 05:03:40;;;;;;;57.40;34.00;;;;;;;2.61;87.38;98576.52;116441;1182;60318;-71
2021/10/19 05:06:09;;;;;;;55.30;34.50;;;;;;;2.62;87.61;98577.23;116488;1182;72203;-72
2021/10/19 05:08:38;;;;;;;49.80;27.70;;;;;;;2.64;87.73;98578.52;116487;1182;68737;-74
2021/10/19 05:11:07;;;;;;;52.30;30.60;;;;;;;2.66;88.44;98582.63;116507;1181;67443;-72
2021/10/19 05:13:37;;;;;;;52.60;32.50;;;;;;;2.68;87.99;98583.52;116288;1182;60409;-72
2021/10/19 05:16:06;;;;;;;54.00;31.70;;;;;;;2.70;88.35;98583.20;116476;1182;60419;-70
2021/10/19 05:18:36;;;;;;;46.80;29.70;;;;;;;2.74;87.72;98582.80;116309;1182;72171;-71
2021/10/19 05:21:05;;;;;;;45.40;29.60;;;;;;;2.79;87.77;98584.61;116457;1182;67909;-77
2021/10/19 05:23:35;;;;;;;47.40;31.70;;;;;;;2.85;88.27;98588.08;116474;1182;68510;-85
2021/10/19 05:26:04;;;;;;;47.80;25.90;;;;;;;2.88;88.02;98590.44;116381;1182;60355;-75
2021/10/19 05:28:33;;;;;;;47.20;29.90;;;;;;;2.90;87.57;98591.40;116352;1182;60364;-73
2021/10/19 05:31:03;;;;;;;47.30;29.80;;;;;;;2.89;86.83;98594.44;116426;1181;72207;-71
2021/10/19 05:33:32;;;;;;;45.70;27.90;;;;;;;2.88;86.89;98589.65;116478;1182;67722;-72
2021/10/19 05:36:01;;;;;;;45.40;26.90;;;;;;;2.91;86.88;98589.08;116235;1182;68429;-78
2021/10/19 05:38:33;;;;;;;38.60;23.70;;;;;;;3.00;86.94;98594.39;116430;1182;60347;-76
2021/10/19 05:41:03;;;;;;;36.30;23.60;;;;;;;3.09;87.05;98591.30;116443;1182;60350;-82
2021/10/19 05:43:32;;;;;;;40.70;26.40;;;;;;;3.17;87.22;98596.20;116484;1182;72196;-71
2021/10/19 05:46:01;;;;;;;46.80;27.20;;;;;;;3.22;87.13;98600.36;116442;1182;67995;-72
2021/10/19 05:48:30;;;;;;;42.40;28.90;;;;;;;3.31;86.80;98602.33;116408;1182;68466;-78
2021/10/19 05:50:59;;;;;;;36.50;23.80;;;;;;;3.47;87.07;98608.48;116453;1182;60360;-85
2021/10/19 05:53:28;;;;;;;42.30;24.90;;;;;;;3.60;87.24;98605.10;116435;1182;60392;-72
2021/10/19 05:55:57;;;;;;;39.50;25.50;;;;;;;3.75;86.89;98605.20;116298;1183;71579;-75
2021/10/19 05:58:26;;;;;;;34.80;24.20;;;;;;;3.94;86.71;98605.48;116451;1182;68246;-76
2021/10/19 06:00:55;;;;;;;50.90;32.60;;;;;;;4.08;86.75;98608.84;116458;1182;68250;-75
2021/10/19 06:03:24;;;;;;;48.20;31.80;;;;;;;4.28;86.09;98613.68;116269;1182;60353;-71
2021/10/19 06:05:57;;;;;;;42.70;27.10;;;;;;;4.62;84.96;98618.45;116482;1182;60313;-67
2021/10/19 06:08:26;;;;;;;48.30;28.70;;;;;;;5.02;82.85;98613.61;116462;1182;72220;-75
2021/10/19 06:10:56;;;;;;;40.70;26.60;;;;;;;5.45;81.40;98614.30;116487;1182;68482;-73
2021/10/19 06:13:25;;;;;;;41.80;26.20;;;;;;;5.95;79.62;98616.75;116467;1182;69258;-80
2021/10/19 06:15:56;;;;;;;43.30;27.20;;;;;;;6.37;78.76;98616.10;116541;1182;60351;-71
2021/10/19 06:18:25;;;;;;;42.60;28.40;;;;;;;6.62;79.90;98614.52;116590;1182;60359;-75
2021/10/19 06:20:54;;;;;;;43.80;26.60;;;;;;;6.75;79.64;98617.10;116345;1182;73790;-80
2021/10/19 06:23:23;;;;;;;48.70;30.40;;;;;;;6.92;79.91;98621.81;116466;1182;68127;-70
2021/10/19 06:25:54;;;;;;;62.90;38.60;;;;;;;7.06;78.94;98625.58;116426;1182;69265;-69
2021/10/19 06:28:24;;;;;;;66.40;41.40;;;;;;;7.27;78.51;98627.45;116482;1182;60351;-72
2021/10/19 06:30:53;;;;;;;71.40;43.20;;;;;;;7.48;77.09;98626.17;116435;1182;60328;-69
2021/10/19 06:33:22;;;;;;;41.70;28.60;;;;;;;7.66;76.04;98635.02;116443;1182;72803;-71
2021/10/19 06:35:51;;;;;;;48.00;29.00;;;;;;;7.78;74.84;98637.63;116427;1182;66720;-77
2021/10/19 06:38:20;;;;;;;32.20;23.70;;;;;;;8.12;75.42;98644.81;116458;1182;69382;-71
2021/10/19 06:40:49;;;;;;;30.60;21.70;;;;;;;8.61;74.51;98642.58;116481;1182;60362;-76
2021/10/19 06:43:18;;;;;;;33.50;20.70;;;;;;;8.86;69.62;98643.38;116436;1182;60324;-73
2021/10/19 06:45:48;;;;;;;32.60;22.90;;;;;;;9.13;69.78;98644.70;116458;1182;71072;-79
2021/10/19 06:48:17;;;;;;;31.90;20.90;;;;;;;9.60;68.80;98643.75;116327;1183;67666;-74
2021/10/19 06:50:45;;;;;;;28.70;20.20;;;;;;;9.92;67.40;98649.48;116452;1182;68474;-67
2021/10/19 06:53:14;;;;;;;30.00;21.50;;;;;;;10.02;65.78;98649.95;116442;1182;60316;-81
2021/10/19 06:55:43;;;;;;;29.00;20.70;;;;;;;10.50;66.23;98642.10;116509;1181;60312;-80
2021/10/19 06:58:12;;;;;;;36.50;22.30;;;;;;;11.01;65.04;98649.33;116520;1182;71536;-75
2021/10/19 07:00:41;;;;;;;28.40;20.70;;;;;;;11.53;65.69;98646.69;116337;1182;67708;-81
2021/10/19 07:03:11;;;;;;;31.90;21.50;;;;;;;11.88;62.93;98645.09;116508;1182;69808;-88
2021/10/19 07:05:39;;;;;;;28.90;20.40;;;;;;;12.27;61.75;98646.39;116488;1182;60359;-86
2021/10/19 07:08:10;;;;;;;28.70;21.90;;;;;;;12.35;61.04;98646.88;116770;1182;60385;-78
2021/10/19 07:10:40;;;;;;;29.10;21.20;;;;;;;12.61;60.31;98657.70;116805;1181;71423;-71
2021/10/19 07:13:09;;;;;;;33.80;23.00;;;;;;;12.97;59.70;98656.55;116492;1182;67465;-78
2021/10/19 07:15:38;;;;;;;31.40;22.30;;;;;;;13.20;56.37;98654.45;116428;1182;69328;-69
2021/10/19 07:18:08;;;;;;;35.20;23.00;;;;;;;12.96;54.94;98658.25;116540;1182;60360;-83
2021/10/19 07:20:37;;;;;;;32.90;21.90;;;;;;;12.71;56.35;98660.78;116435;1182;60306;-80
2021/10/19 07:23:06;;;;;;;40.20;21.60;;;;;;;12.97;56.16;98657.12;116486;1182;72833;-79
2021/10/19 07:25:35;;;;;;;22.10;15.70;;;;;;;13.24;54.18;98657.62;116558;1182;68463;-72
2021/10/19 07:28:05;;;;;;;24.30;18.10;;;;;;;13.10;53.98;98654.16;116646;1182;68464;-68
2021/10/19 07:30:34;;;;;;;29.70;20.10;;;;;;;13.24;54.30;98654.69;116399;1182;60390;-84
2021/10/19 07:33:03;;;;;;;25.00;18.70;;;;;;;13.93;54.31;98657.23;116460;1182;60293;-78
2021/10/19 07:35:32;;;;;;;26.00;18.50;;;;;;;14.53;53.74;98656.11;116450;1182;71219;-74
2021/10/19 07:38:01;;;;;;;26.70;19.50;;;;;;;15.00;51.51;98654.08;116538;1182;68456;-85
2021/10/19 07:40:31;;;;;;;24.70;17.50;;;;;;;14.69;49.58;98645.75;116711;1182;68540;-74
2021/10/19 07:43:00;;;;;;;20.50;16.50;;;;;;;15.09;49.92;98647.52;116473;1182;60369;-75
2021/10/19 07:45:29;;;;;;;21.90;16.50;;;;;;;15.30;48.24;98652.28;116454;1182;60348;-82
2021/10/19 07:48:01;;;;;;;21.20;16.30;;;;;;;15.41;48.30;98649.17;116430;1182;72207;-74
2021/10/19 07:50:30;;;;;;;27.40;17.10;;;;;;;15.16;47.32;98650.11;116466;1181;68116;-71
2021/10/19 07:53:01;;;;;;;21.70;16.30;;;;;;;15.20;48.35;98650.00;116467;1182;68317;-76
2021/10/19 07:55:33;;;;;;;21.60;15.60;;;;;;;15.40;47.98;98651.84;116306;1183;60355;-69
2021/10/19 07:58:02;;;;;;;24.40;17.20;;;;;;;15.91;47.18;98654.20;116544;1182;60353;-78
2021/10/19 08:00:31;;;;;;;22.80;17.60;;;;;;;16.28;45.51;98658.38;116571;1182;72304;-84
2021/10/19 08:03:00;;;;;;;24.90;18.50;;;;;;;15.95;46.17;98657.13;116763;1182;68825;-68
2021/10/19 08:05:30;;;;;;;25.70;17.40;;;;;;;15.85;46.17;98657.36;116583;1182;69275;-74
2021/10/19 08:08:13;;;;;;;26.90;18.30;;;;;;;16.32;46.19;98656.89;116547;1182;60326;-77
2021/10/19 08:10:46;;;;;;;24.90;18.70;;;;;;;16.43;45.35;98656.05;116497;1182;60320;-68
2021/10/19 08:13:17;;;;;;;28.00;18.50;;;;;;;16.83;45.20;98654.95;116557;1182;72274;-82
2021/10/19 08:15:47;;;;;;;32.30;23.30;;;;;;;17.25;43.23;98654.39;116498;1181;68280;-71
2021/10/19 08:18:16;;;;;;;27.90;20.70;;;;;;;17.07;44.46;98654.67;116567;1182;69338;-85
2021/10/19 08:20:45;;;;;;;29.50;19.70;;;;;;;17.00;44.22;98647.55;116483;1182;60351;-75
2021/10/19 08:23:15;;;;;;;28.20;20.60;;;;;;;17.48;43.56;98651.55;116567;1182;60315;-72
2021/10/19 08:25:44;;;;;;;26.70;20.70;;;;;;;17.36;42.90;98651.61;116347;1183;71438;-72
2021/10/19 08:28:21;;;;;;;28.80;21.10;;;;;;;17.75;42.47;98654.31;116463;1182;68973;-71
2021/10/19 08:30:52;;;;;;;32.70;24.00;;;;;;;17.66;41.97;98654.17;116469;1182;69473;-74
2021/10/19 08:33:20;;;;;;;36.30;24.20;;;;;;;17.90;41.52;98661.42;116512;1182;60338;-87
2021/10/19 08:35:50;;;;;;;30.50;23.80;;;;;;;17.78;40.88;98658.35;116451;1182;60352;-83
2021/10/19 08:38:19;;;;;;;30.30;22.90;;;;;;;16.96;42.24;98653.96;116493;1182;71601;-77
2021/10/19 08:40:48;;;;;;;29.70;22.80;;;;;;;17.00;43.59;98652.69;116387;1182;67751;-72
2021/10/19 08:43:20;;;;;;;30.80;24.00;;;;;;;17.58;41.55;98655.73;116428;1182;68448;-77
2021/10/19 08:45:51;;;;;;;28.90;23.00;;;;;;;16.94;42.10;98655.12;116412;1182;60355;-79
2021/10/19 08:48:21;;;;;;;29.20;21.10;;;;;;;17.11;42.01;98657.61;116466;1182;60362;-73
2021/10/19 08:50:50;;;;;;;32.50;22.30;;;;;;;16.82;42.92;98657.61;116422;1182;72253;-78
2021/10/19 08:53:19;;;;;;;28.80;21.70;;;;;;;17.12;42.72;98658.55;116437;1182;68293;-74
2021/10/19 08:55:48;;;;;;;26.80;21.20;;;;;;;17.58;41.60;98655.77;116422;1181;69716;-69
2021/10/19 08:58:17;;;;;;;28.20;20.20;;;;;;;17.88;41.10;98649.39;116488;1182;60307;-71
2021/10/19 09:00:46;;;;;;;26.30;19.20;;;;;;;18.53;39.47;98647.02;116526;1181;60327;-84
2021/10/19 09:03:21;;;;;;;25.70;19.60;;;;;;;18.51;38.64;98642.59;116441;1182;70685;-86
2021/10/19 09:05:51;;;;;;;25.90;18.80;;;;;;;19.13;37.24;98649.16;116483;1182;67762;-74
2021/10/19 09:08:20;;;;;;;23.70;17.70;;;;;;;18.77;37.74;98650.34;116378;1182;69273;-79
2021/10/19 09:10:49;;;;;;;23.00;16.90;;;;;;;18.28;38.15;98659.36;116454;1182;60359;-71
2021/10/19 09:13:19;;;;;;;20.20;16.40;;;;;;;17.21;39.59;98655.73;116499;1182;60343;-72
2021/10/19 09:15:51;;;;;;;21.80;15.90;;;;;;;17.59;39.74;98663.95;116465;1173;71418;-75
2021/10/19 09:18:22;;;;;;;23.20;16.80;;;;;;;18.29;38.29;98657.86;116527;1182;68370;-71
2021/10/19 09:20:54;;;;;;;24.50;16.20;;;;;;;18.58;38.59;98651.55;116547;1181;68037;-76
2021/10/19 09:23:25;;;;;;;21.60;13.30;;;;;;;19.05;38.58;98651.13;116279;1182;60334;-74
2021/10/19 09:25:57;;;;;;;18.70;12.90;;;;;;;19.19;36.75;98655.20;116563;1181;60351;-70
2021/10/19 09:28:37;;;;;;;18.50;13.10;;;;;;;19.92;35.56;98652.69;116548;1182;72171;-70
2021/10/19 09:31:07;;;;;;;16.50;12.60;;;;;;;20.16;35.73;98651.68;116555;1182;68248;-77
2021/10/19 09:33:37;;;;;;;21.90;11.80;;;;;;;21.19;33.92;98655.19;116460;1182;68477;-82
2021/10/19 09:36:06;;;;;;;15.70;11.90;;;;;;;21.60;32.00;98656.36;116258;1184;60452;-71
2021/10/19 09:38:35;;;;;;;15.20;11.30;;;;;;;21.63;32.03;98655.68;116274;1184;60348;-74
2021/10/19 09:41:03;;;;;;;16.40;10.80;;;;;;;22.30;31.66;98663.70;116480;1181;71494;-78
2021/10/19 09:43:32;;;;;;;14.10;10.60;;;;;;;22.44;29.56;98660.84;116514;1182;68393;-83
2021/10/19 09:46:06;;;;;;;15.70;11.50;;;;;;;22.02;30.70;98657.00;116381;1182;69253;-80
2021/10/19 09:48:40;;;;;;;18.60;13.00;;;;;;;22.47;30.02;98662.63;116673;1181;60308;-81
2021/10/19 09:51:10;;;;;;;19.20;13.10;;;;;;;22.22;30.41;98657.95;116218;1184;60022;-78
2021/10/19 09:53:41;;;;;;;18.10;12.50;;;;;;;22.86;30.09;98651.56;116542;1182;71411;-78
2021/10/19 09:56:10;;;;;;;17.80;13.50;;;;;;;22.95;28.47;98648.94;116476;1182;69006;-83
2021/10/19 09:58:41;;;;;;;16.50;12.20;;;;;;;22.86;28.88;98644.80;116507;1182;69348;-73
2021/10/19 10:01:11;;;;;;;14.00;11.30;;;;;;;23.27;28.54;98640.48;116474;1182;60418;-74
2021/10/19 10:03:41;;;;;;;16.80;12.10;;;;;;;22.18;29.09;98636.74;116490;1182;60300;-71
2021/10/19 10:06:10;;;;;;;16.50;12.30;;;;;;;22.61;29.64;98630.89;116354;1182;71559;-70
2021/10/19 10:08:40;;;;;;;16.50;12.20;;;;;;;23.35;29.72;98630.64;116425;1183;68418;-78
2021/10/19 10:11:09;;;;;;;15.00;12.30;;;;;;;22.40;29.32;98631.27;116481;1174;69975;-75
2021/10/19 10:13:38;;;;;;;15.20;11.80;;;;;;;21.48;30.01;98628.64;116421;1182;60433;-70
2021/10/19 10:16:09;;;;;;;17.00;12.80;;;;;;;21.03;32.18;98627.86;116540;1182;60338;-77
2021/10/19 10:18:38;;;;;;;18.00;13.90;;;;;;;20.95;32.69;98623.57;116472;1183;72225;-71
2021/10/19 10:21:15;;;;;;;17.90;13.50;;;;;;;21.33;32.62;98619.23;116454;1181;68773;-74
2021/10/19 10:23:45;;;;;;;17.20;12.70;;;;;;;21.53;31.72;98621.59;116437;1182;68491;-69
2021/10/19 10:26:23;;;;;;;19.70;14.10;;;;;;;21.26;32.12;98623.00;116251;1182;60336;-69
2021/10/19 10:28:52;;;;;;;18.90;13.50;;;;;;;21.59;32.37;98623.75;116409;1181;60332;-71
2021/10/19 10:31:23;;;;;;;18.00;13.60;;;;;;;21.52;32.19;98617.72;116275;1184;72302;-74
2021/10/19 10:34:04;;;;;;;14.60;11.60;;;;;;;22.70;30.88;98616.76;116276;1183;67813;-82
2021/10/19 10:36:42;;;;;;;17.40;11.70;;;;;;;22.59;30.02;98618.75;116371;1182;69282;-77
2021/10/19 10:39:13;;;;;;;15.80;11.00;;;;;;;22.82;30.05;98615.60;116465;1173;60360;-76
2021/10/19 10:41:47;;;;;;;14.40;10.80;;;;;;;23.26;29.79;98613.43;116452;1182;60339;-78
2021/10/19 10:44:22;;;;;;;17.80;9.00;;;;;;;22.90;29.35;98610.42;116487;1181;72402;-70
2021/10/19 10:47:03;;;;;;;13.40;9.00;;;;;;;22.30;29.51;98606.46;116262;1184;67673;-80
2021/10/19 10:49:33;;;;;;;13.70;9.00;;;;;;;21.96;30.22;98602.52;116305;1182;69286;-72
2021/10/19 10:52:13;;;;;;;;;;;;;;;22.43;28.87;98598.13;116416;1182;60359;-81
2021/10/19 10:54:56;;;;;;;10.60;8.20;;;;;;;22.70;28.66;98595.38;116377;1180;60340;-72
2021/10/19 10:57:25;;;;;;;12.40;8.50;;;;;;;22.61;29.14;98592.23;116291;1184;71385;-70
2021/10/19 10:59:56;;;;;;;15.60;9.70;;;;;;;22.62;29.06;98588.16;116424;1182;68524;-69
2021/10/19 11:02:26;;;;;;;13.20;8.40;;;;;;;23.22;28.73;98588.45;116411;1184;68790;-76
2021/10/19 11:04:57;;;;;;;12.70;7.80;;;;;;;23.16;28.12;98581.90;116497;1183;60698;-76
2021/10/19 11:07:32;;;;;;;11.40;8.20;;;;;;;23.37;26.65;98580.36;116278;1182;60312;-75
2021/10/19 11:10:13;;;;;;;9.50;7.60;;;;;;;22.47;27.60;98576.86;116232;1183;72722;-74
2021/10/19 11:12:44;;;;;;;11.60;8.00;;;;;;;21.73;28.90;98573.39;116249;1184;68519;-76
2021/10/19 11:15:16;;;;;;;13.20;8.00;;;;;;;21.83;29.43;98571.86;116204;1183;69019;-69
2021/10/19 11:17:50;;;;;;;10.90;7.20;;;;;;;22.31;28.93;98575.07;116122;1182;60432;-71
2021/10/19 11:20:21;;;;;;;11.90;8.10;;;;;;;22.70;27.17;98578.55;116357;1182;60367;-84
2021/10/19 11:22:51;;;;;;;11.00;7.80;;;;;;;22.60;26.70;98573.95;116308;1184;72825;-78
2021/10/19 11:25:21;;;;;;;;;;;;;;;22.28;27.24;98569.35;116286;1183;68384;-70
2021/10/19 11:27:52;;;;;;;11.90;7.40;;;;;;;22.28;28.72;98572.16;116217;1184;69868;-78
2021/10/19 11:30:23;;;;;;;12.50;7.60;;;;;;;23.38;27.61;98569.42;116276;1184;60393;-78